Time;durP1;ratioP1;P1;durP2;ratioP2;P2;SDS_P1;SDS_P2;PMS_P1;PMS_P2;Temp;Humidity;BMP_temperature;BMP_pressure;BME280_temperature;BME280_humidity;BME280_pressure;Samples;Min_cycle;Max_cycle;Signal;HPM_P1;HPM_P2
2022/09/09 00:00:19;;;;;;;1.77;0.60;;;;;;;15.28;85.07;100163.91;5029553;28;20218;-81
2022/09/09 00:02:55;;;;;;;1.27;0.47;;;;;;;15.27;85.21;100154.16;5029683;28;20212;-81
2022/09/09 00:05:29;;;;;;;1.50;0.43;;;;;;;15.28;85.02;100161.22;5038737;28;20203;-81
2022/09/09 00:08:00;;;;;;;1.17;0.60;;;;;;;15.27;84.89;100155.00;5038183;28;20198;-81
2022/09/09 00:10:30;;;;;;;1.20;0.47;;;;;;;15.26;85.02;100160.53;5034307;28;20230;-80
2022/09/09 00:13:03;;;;;;;0.97;0.63;;;;;;;15.25;84.87;100159.66;5036301;28;20204;-81
2022/09/09 00:15:39;;;;;;;0.97;0.67;;;;;;;15.24;85.07;100166.03;5034763;28;20198;-81
2022/09/09 00:18:17;;;;;;;1.20;0.70;;;;;;;15.24;85.39;100152.59;5035871;28;20205;-81
2022/09/09 00:20:50;;;;;;;0.90;0.50;;;;;;;15.23;85.65;100161.63;5042960;28;20228;-81
2022/09/09 00:23:24;;;;;;;1.47;0.60;;;;;;;15.22;85.57;100159.97;5031710;28;20226;-81
2022/09/09 00:25:59;;;;;;;2.20;0.70;;;;;;;15.21;85.33;100154.75;5043823;28;20206;-80
2022/09/09 00:28:30;;;;;;;2.10;0.80;;;;;;;15.19;85.76;100160.25;5035494;28;20201;-81
2022/09/09 00:31:02;;;;;;;2.03;0.90;;;;;;;15.16;85.50;100163.19;5031509;28;20638;-80
2022/09/09 00:33:32;;;;;;;1.83;0.77;;;;;;;15.11;85.65;100160.06;5033630;28;20198;-81
2022/09/09 00:36:00;;;;;;;0.90;0.70;;;;;;;15.06;85.75;100156.94;5033600;28;20231;-80
2022/09/09 00:38:36;;;;;;;1.70;0.77;;;;;;;15.02;86.20;100155.56;5034011;28;20554;-80
2022/09/09 00:41:11;;;;;;;3.23;1.13;;;;;;;14.99;86.07;100146.94;5032389;28;20276;-81
2022/09/09 00:43:40;;;;;;;1.00;0.90;;;;;;;14.94;86.18;100150.84;5034664;28;20222;-80
2022/09/09 00:46:23;;;;;;;1.63;0.70;;;;;;;14.90;86.38;100151.25;5037703;28;20210;-80
2022/09/09 00:49:00;;;;;;;1.37;0.90;;;;;;;14.87;86.36;100148.84;5036656;28;20778;-81
2022/09/09 00:51:39;;;;;;;1.60;0.90;;;;;;;14.85;86.62;100153.53;5034515;28;20663;-80
2022/09/09 00:54:27;;;;;;;1.57;0.73;;;;;;;14.82;86.91;100159.16;5034551;28;20277;-81
2022/09/09 00:57:07;;;;;;;1.83;0.80;;;;;;;14.79;87.22;100159.41;5033200;28;20203;-81
2022/09/09 00:59:44;;;;;;;2.07;1.10;;;;;;;14.75;87.11;100150.81;5035469;28;20221;-81
2022/09/09 01:02:26;;;;;;;2.37;0.90;;;;;;;14.73;87.17;100154.59;5040255;28;20206;-80
2022/09/09 01:04:54;;;;;;;2.90;0.93;;;;;;;14.69;87.53;100153.19;5040342;28;20668;-81
2022/09/09 01:07:21;;;;;;;1.17;0.80;;;;;;;14.66;87.31;100158.81;5036529;28;20206;-80
2022/09/09 01:09:57;;;;;;;1.83;0.80;;;;;;;14.62;87.49;100152.88;5031819;28;20222;-81
2022/09/09 01:12:35;;;;;;;1.10;0.80;;;;;;;14.60;87.60;100154.84;5035831;28;20198;-80
2022/09/09 01:15:09;;;;;;;4.70;1.20;;;;;;;14.59;88.01;100158.50;5036546;28;20206;-80
2022/09/09 01:17:54;;;;;;;2.20;0.60;;;;;;;14.57;87.85;100163.13;5033846;28;20201;-81
2022/09/09 01:20:25;;;;;;;1.63;0.70;;;;;;;14.56;88.34;100167.66;5034083;28;20222;-80
2022/09/09 01:23:06;;;;;;;2.23;1.00;;;;;;;14.54;88.02;100158.91;5034606;28;20271;-81
2022/09/09 01:26:10;;;;;;;5.17;1.33;;;;;;;14.53;88.20;100153.66;5037486;28;20691;-80
2022/09/09 01:28:41;;;;;;;1.67;0.87;;;;;;;14.52;88.70;100146.59;5034440;28;20201;-79
2022/09/09 01:31:12;;;;;;;0.93;0.80;;;;;;;14.50;88.83;100144.09;5040665;28;20233;-80
2022/09/09 01:33:38;;;;;;;2.23;0.80;;;;;;;14.50;88.73;100144.09;5036520;28;20574;-79
2022/09/09 01:36:10;;;;;;;1.93;0.90;;;;;;;14.49;88.89;100147.75;5032193;28;20665;-80
2022/09/09 01:38:37;;;;;;;2.43;1.00;;;;;;;14.45;88.53;100143.63;5035062;28;20213;-80
2022/09/09 01:41:05;;;;;;;1.00;0.90;;;;;;;14.43;88.47;100144.75;5032225;28;20221;-80
2022/09/09 01:43:32;;;;;;;1.57;0.90;;;;;;;14.39;88.79;100136.09;5032512;28;20202;-81
2022/09/09 01:46:01;;;;;;;4.17;1.10;;;;;;;14.36;88.55;100147.06;5037785;28;20213;-80
2022/09/09 01:48:28;;;;;;;1.83;0.80;;;;;;;14.32;88.18;100150.16;5030843;28;20218;-80
2022/09/09 01:50:55;;;;;;;1.30;0.80;;;;;;;14.28;88.24;100146.91;5030286;28;20692;-81
2022/09/09 01:53:22;;;;;;;2.03;0.90;;;;;;;14.26;88.37;100148.88;5036528;28;20201;-80
2022/09/09 01:56:00;;;;;;;1.17;0.80;;;;;;;14.24;88.29;100145.47;5035081;28;20210;-80
2022/09/09 01:58:39;;;;;;;1.60;0.83;;;;;;;14.21;88.52;100156.44;5031087;28;20217;-80
2022/09/09 02:01:16;;;;;;;2.30;0.70;;;;;;;14.18;88.75;100151.34;5037547;28;20214;-80
2022/09/09 02:03:50;;;;;;;1.83;1.13;;;;;;;14.17;89.19;100158.53;5033725;28;20210;-80
2022/09/09 02:06:26;;;;;;;2.23;0.90;;;;;;;14.15;88.91;100160.47;5030582;28;20598;-81
2022/09/09 02:08:57;;;;;;;2.17;0.90;;;;;;;14.15;89.41;100157.00;5034621;28;20229;-81
2022/09/09 02:11:26;;;;;;;1.90;0.90;;;;;;;14.14;89.89;100157.97;5035349;28;20215;-80
2022/09/09 02:14:00;;;;;;;1.90;1.07;;;;;;;14.14;89.95;100156.13;5034242;28;20610;-81
2022/09/09 02:16:31;;;;;;;1.93;0.90;;;;;;;14.14;89.76;100161.50;5033017;28;20664;-80
2022/09/09 02:19:04;;;;;;;0.70;0.70;;;;;;;14.13;90.04;100156.25;5030324;28;20210;-80
2022/09/09 02:21:34;;;;;;;2.43;1.17;;;;;;;14.10;89.76;100165.41;5034467;28;20208;-80
2022/09/09 02:24:05;;;;;;;2.43;0.90;;;;;;;14.10;89.75;100159.19;5034986;28;20234;-80
2022/09/09 02:26:33;;;;;;;5.90;1.00;;;;;;;14.08;90.09;100158.47;5032804;28;20714;-80
2022/09/09 02:29:05;;;;;;;1.30;0.90;;;;;;;14.07;90.41;100151.44;5034498;28;20833;-80
2022/09/09 02:31:35;;;;;;;2.93;0.90;;;;;;;14.06;89.97;100147.06;5038082;28;20625;-80
2022/09/09 02:34:03;;;;;;;2.47;1.00;;;;;;;14.03;89.97;100142.81;5030709;28;20194;-80
2022/09/09 02:36:33;;;;;;;2.97;0.90;;;;;;;14.02;90.30;100140.25;5032314;28;20677;-80
2022/09/09 02:39:01;;;;;;;2.97;1.17;;;;;;;14.00;90.41;100144.88;5033516;28;20203;-80
2022/09/09 02:41:33;;;;;;;6.67;3.23;;;;;;;13.98;90.15;100141.50;5035708;28;20668;-79
2022/09/09 02:43:59;;;;;;;4.33;2.10;;;;;;;13.97;90.21;100147.84;5029841;28;20288;-80
2022/09/09 02:46:44;;;;;;;2.63;1.20;;;;;;;13.96;90.60;100133.63;5032577;28;20202;-80
2022/09/09 02:49:19;;;;;;;3.47;1.70;;;;;;;13.94;90.35;100132.91;5030242;28;20202;-80
2022/09/09 02:51:55;;;;;;;3.13;1.00;;;;;;;13.93;90.50;100146.41;5036286;28;20225;-80
2022/09/09 02:54:27;;;;;;;3.80;1.10;;;;;;;13.93;90.92;100152.63;5030172;28;20225;-80
2022/09/09 02:56:55;;;;;;;1.90;0.90;;;;;;;13.92;91.13;100150.06;5028953;28;20241;-80
2022/09/09 02:59:23;;;;;;;2.07;1.20;;;;;;;13.93;91.00;100146.41;5035421;28;20232;-80
2022/09/09 03:01:53;;;;;;;2.90;0.83;;;;;;;13.95;92.06;100144.44;5030707;28;20202;-80
2022/09/09 03:04:19;;;;;;;4.13;1.20;;;;;;;13.99;92.83;100143.19;5035789;28;20214;-80
2022/09/09 03:06:46;;;;;;;1.67;1.00;;;;;;;14.05;93.39;100143.53;5029097;28;20437;-79
2022/09/09 03:09:12;;;;;;;2.87;0.90;;;;;;;14.11;93.56;100132.28;5034442;28;20312;-80
2022/09/09 03:11:39;;;;;;;2.97;1.40;;;;;;;14.16;93.79;100134.56;5038005;28;20225;-80
2022/09/09 03:14:06;;;;;;;3.37;1.40;;;;;;;14.21;93.75;100145.72;5030427;28;20202;-79
2022/09/09 03:16:34;;;;;;;1.43;1.10;;;;;;;14.25;94.30;100147.16;5032123;28;20483;-80
2022/09/09 03:19:02;;;;;;;2.50;1.10;;;;;;;14.29;94.07;100142.41;5036102;28;20208;-80
2022/09/09 03:21:28;;;;;;;2.97;1.10;;;;;;;14.33;94.58;100147.34;5041212;28;20198;-81
2022/09/09 03:23:55;;;;;;;4.33;0.90;;;;;;;14.36;94.05;100144.38;5030919;28;20207;-81
2022/09/09 03:26:21;;;;;;;3.93;1.10;;;;;;;14.40;94.17;100148.53;5032577;28;20579;-80
2022/09/09 03:28:51;;;;;;;1.93;1.10;;;;;;;14.44;94.52;100144.63;5028614;28;20234;-81
2022/09/09 03:31:19;;;;;;;2.53;1.30;;;;;;;14.47;94.59;100138.16;5035562;28;20258;-81
2022/09/09 03:33:45;;;;;;;3.00;1.20;;;;;;;14.50;94.25;100138.72;5030797;28;20271;-80
2022/09/09 03:36:13;;;;;;;2.00;0.90;;;;;;;14.55;94.54;100127.59;5030956;28;20205;-80
2022/09/09 03:38:39;;;;;;;1.43;0.90;;;;;;;14.57;94.29;100137.19;5032055;28;20217;-80
2022/09/09 03:41:07;;;;;;;3.53;1.40;;;;;;;14.62;94.27;100134.13;5034171;28;20218;-80
2022/09/09 03:43:34;;;;;;;2.27;1.20;;;;;;;14.65;93.95;100133.00;5039644;28;20610;-80
2022/09/09 03:46:01;;;;;;;4.20;1.77;;;;;;;14.66;93.79;100135.53;5035831;28;20209;-80
2022/09/09 03:48:28;;;;;;;4.03;1.27;;;;;;;14.68;93.79;100132.72;5034196;28;20646;-80
2022/09/09 03:50:57;;;;;;;3.20;0.90;;;;;;;14.70;93.82;100133.41;5035317;28;20803;-80
2022/09/09 03:53:25;;;;;;;4.50;1.20;;;;;;;14.73;93.58;100133.16;5034533;28;20260;-80
2022/09/09 03:55:55;;;;;;;2.77;0.93;;;;;;;14.73;93.20;100131.31;5034046;28;20677;-80
2022/09/09 03:58:23;;;;;;;4.03;1.20;;;;;;;14.75;93.18;100134.72;5034400;28;20238;-79
2022/09/09 04:01:01;;;;;;;2.33;1.03;;;;;;;14.75;93.21;100126.69;5036085;28;20240;-80
2022/09/09 04:03:28;;;;;;;2.50;1.20;;;;;;;14.75;92.75;100132.03;5034702;28;20201;-80
2022/09/09 04:05:56;;;;;;;2.40;1.00;;;;;;;14.78;92.71;100136.28;5036692;28;20203;-79
2022/09/09 04:08:25;;;;;;;2.07;1.00;;;;;;;14.79;92.61;100138.81;5034786;28;20218;-79
2022/09/09 04:10:52;;;;;;;3.43;1.20;;;;;;;14.81;92.61;100138.69;5033553;28;20234;-80
2022/09/09 04:13:20;;;;;;;2.17;1.13;;;;;;;14.82;92.37;100140.38;5035788;28;20214;-80
2022/09/09 04:15:51;;;;;;;4.20;0.90;;;;;;;14.85;92.49;100142.81;5033482;28;20210;-80
2022/09/09 04:18:19;;;;;;;4.03;1.17;;;;;;;14.86;92.59;100139.13;5033599;28;20211;-80
2022/09/09 04:20:47;;;;;;;3.70;1.30;;;;;;;14.89;92.30;100145.06;5034010;28;20222;-80
2022/09/09 04:23:13;;;;;;;2.07;1.07;;;;;;;14.90;92.00;100146.75;5035345;28;20222;-80
2022/09/09 04:25:46;;;;;;;3.03;1.00;;;;;;;14.91;92.30;100148.44;5036231;28;20218;-80
2022/09/09 04:28:12;;;;;;;3.23;1.30;;;;;;;14.93;91.97;100145.63;5032245;28;20206;-80
2022/09/09 04:30:39;;;;;;;1.57;1.00;;;;;;;14.96;91.94;100153.41;5037144;28;20233;-80
2022/09/09 04:33:06;;;;;;;2.50;0.90;;;;;;;14.98;92.05;100146.06;5038470;28;20295;-80
2022/09/09 04:35:32;;;;;;;3.93;1.23;;;;;;;15.02;92.00;100146.66;5032941;28;20292;-80
2022/09/09 04:37:59;;;;;;;2.83;1.00;;;;;;;15.04;91.61;100150.91;5038325;28;20198;-80
2022/09/09 04:40:25;;;;;;;2.53;0.97;;;;;;;15.05;91.36;100155.25;5037482;28;20220;-80
2022/09/09 04:42:53;;;;;;;2.80;1.07;;;;;;;15.06;91.37;100156.09;5033214;28;20579;-80
2022/09/09 04:45:19;;;;;;;2.50;1.20;;;;;;;15.08;91.71;100159.50;5031661;28;20216;-80
2022/09/09 04:47:46;;;;;;;1.97;1.10;;;;;;;15.09;91.69;100156.69;5032798;28;20228;-80
2022/09/09 04:50:12;;;;;;;2.70;1.03;;;;;;;15.10;91.30;100154.84;5034284;28;20228;-80
2022/09/09 04:52:39;;;;;;;1.83;1.03;;;;;;;15.12;91.22;100155.56;5033011;28;20296;-79
2022/09/09 04:55:07;;;;;;;2.70;1.03;;;;;;;15.12;91.23;100153.72;5028412;28;20214;-79
2022/09/09 04:57:33;;;;;;;2.40;1.10;;;;;;;15.12;91.32;100161.78;5035218;28;20211;-79
2022/09/09 05:00:02;;;;;;;1.87;1.00;;;;;;;15.14;91.19;100158.97;5036102;28;20706;-79
2022/09/09 05:02:30;;;;;;;2.03;0.93;;;;;;;15.14;91.06;100161.63;5037536;28;20203;-79
2022/09/09 05:04:56;;;;;;;3.60;1.60;;;;;;;15.16;90.92;100165.88;5027691;28;20266;-80
2022/09/09 05:07:23;;;;;;;2.90;1.17;;;;;;;15.19;90.97;100157.56;5032737;28;20594;-80
2022/09/09 05:09:49;;;;;;;1.33;0.97;;;;;;;15.22;91.12;100167.16;5027938;28;20244;-80
2022/09/09 05:12:17;;;;;;;3.93;1.27;;;;;;;15.24;90.97;100163.34;5034266;28;20220;-80
2022/09/09 05:14:43;;;;;;;2.50;1.30;;;;;;;15.27;90.98;100167.59;5034976;28;20236;-80
2022/09/09 05:17:13;;;;;;;2.10;0.97;;;;;;;15.29;91.20;100163.78;5032062;28;20214;-80
2022/09/09 05:19:39;;;;;;;3.33;1.20;;;;;;;15.31;91.29;100162.78;5033801;28;20235;-80
2022/09/09 05:22:06;;;;;;;2.50;1.10;;;;;;;15.32;91.36;100165.34;5034666;28;20200;-78
2022/09/09 05:24:33;;;;;;;2.23;1.40;;;;;;;15.33;91.22;100158.13;5031737;28;20211;-80
2022/09/09 05:27:00;;;;;;;2.07;1.07;;;;;;;15.35;91.16;100158.84;5026329;28;20291;-79
2022/09/09 05:29:27;;;;;;;1.80;1.00;;;;;;;15.37;91.44;100159.56;5031969;28;20227;-79
2022/09/09 05:31:54;;;;;;;3.57;0.90;;;;;;;15.39;91.41;100168.31;5032271;28;20307;-79
2022/09/09 05:34:22;;;;;;;3.60;1.20;;;;;;;15.40;91.22;100161.97;5029711;28;20213;-79
2022/09/09 05:36:48;;;;;;;2.67;1.10;;;;;;;15.42;91.36;100166.19;5025562;28;20669;-79
2022/09/09 05:39:15;;;;;;;2.57;1.50;;;;;;;15.45;91.23;100163.22;5031590;28;20857;-80
2022/09/09 05:41:41;;;;;;;2.30;1.03;;;;;;;15.46;91.19;100162.25;5032946;28;20602;-79
2022/09/09 05:44:08;;;;;;;3.80;1.07;;;;;;;15.49;91.23;100167.34;5034370;28;20573;-79
2022/09/09 05:46:34;;;;;;;4.23;1.67;;;;;;;15.52;91.00;100171.56;5032069;28;20212;-79
2022/09/09 05:49:00;;;;;;;2.30;0.90;;;;;;;15.56;91.16;100175.72;5039553;28;20216;-79
2022/09/09 05:51:30;;;;;;;6.57;1.20;;;;;;;15.59;91.00;100170.88;5031573;28;20231;-80
2022/09/09 05:53:58;;;;;;;2.63;1.30;;;;;;;15.61;91.05;100173.44;5025891;28;20219;-80
2022/09/09 05:56:26;;;;;;;3.27;1.27;;;;;;;15.67;90.86;100172.03;5035213;28;20248;-81
2022/09/09 05:58:54;;;;;;;3.80;1.07;;;;;;;15.70;90.78;100175.28;5034139;28;20196;-80
2022/09/09 06:01:22;;;;;;;3.00;1.00;;;;;;;15.73;90.74;100176.84;5031252;28;20235;-81
2022/09/09 06:03:51;;;;;;;2.37;0.97;;;;;;;15.76;90.38;100177.41;5031599;28;20236;-81
2022/09/09 06:06:20;;;;;;;3.60;1.30;;;;;;;15.80;90.00;100180.66;5033744;28;20208;-81
2022/09/09 06:08:50;;;;;;;3.23;1.10;;;;;;;15.84;89.95;100182.91;5030351;28;20212;-81
2022/09/09 06:11:18;;;;;;;3.10;1.37;;;;;;;15.86;89.47;100178.25;5033874;28;20231;-80
2022/09/09 06:13:45;;;;;;;2.47;1.57;;;;;;;15.90;89.44;100187.72;5032683;28;20682;-81
2022/09/09 06:16:13;;;;;;;2.77;1.00;;;;;;;15.93;89.28;100184.75;5033530;28;20239;-80
2022/09/09 06:18:40;;;;;;;3.50;1.23;;;;;;;15.97;89.10;100188.81;5034764;28;20219;-80
2022/09/09 06:21:12;;;;;;;3.33;1.27;;;;;;;16.01;89.07;100188.56;5033948;28;20226;-80
2022/09/09 06:23:41;;;;;;;4.60;1.73;;;;;;;16.04;89.16;100183.75;5031322;28;20220;-81
2022/09/09 06:26:11;;;;;;;3.30;1.20;;;;;;;16.12;89.49;100183.84;5037616;28;20246;-79
2022/09/09 06:28:38;;;;;;;2.37;1.20;;;;;;;16.23;89.51;100180.19;5031895;28;20211;-80
2022/09/09 06:31:06;;;;;;;3.30;1.30;;;;;;;16.33;89.69;100183.69;5031755;28;20607;-80
2022/09/09 06:33:34;;;;;;;3.13;1.40;;;;;;;16.46;89.70;100176.16;5035530;28;20209;-80
2022/09/09 06:36:03;;;;;;;2.50;1.07;;;;;;;16.57;89.46;100178.66;5035963;28;20295;-80
2022/09/09 06:38:29;;;;;;;4.50;1.20;;;;;;;16.70;88.84;100175.66;5033358;28;20696;-80
2022/09/09 06:40:58;;;;;;;3.90;1.20;;;;;;;16.81;88.54;100170.13;5028747;28;20225;-80
2022/09/09 06:43:26;;;;;;;3.73;1.10;;;;;;;16.91;87.71;100170.06;5034553;28;20213;-80
2022/09/09 06:45:57;;;;;;;3.53;1.20;;;;;;;16.99;86.70;100165.63;5030762;28;20218;-80
2022/09/09 06:48:25;;;;;;;4.27;1.27;;;;;;;17.08;86.21;100163.88;5033904;28;20207;-80
2022/09/09 06:50:53;;;;;;;2.13;1.07;;;;;;;17.15;85.33;100173.06;5031840;28;20253;-80
2022/09/09 06:53:19;;;;;;;3.10;1.33;;;;;;;17.23;84.85;100167.75;5035149;28;20203;-82
2022/09/09 06:55:47;;;;;;;3.17;1.30;;;;;;;17.35;84.73;100165.69;5029999;28;20267;-81
2022/09/09 06:58:14;;;;;;;2.10;1.00;;;;;;;17.47;84.29;100172.56;5033224;28;20313;-81
2022/09/09 07:00:42;;;;;;;2.20;1.00;;;;;;;17.58;83.24;100177.69;5031393;28;20230;-81
2022/09/09 07:03:08;;;;;;;2.10;0.90;;;;;;;17.67;82.35;100176.81;5032195;28;20200;-81
2022/09/09 07:05:35;;;;;;;3.60;1.20;;;;;;;17.76;81.61;100174.19;5030989;28;20302;-81
2022/09/09 07:08:02;;;;;;;2.50;0.90;;;;;;;17.86;81.05;100180.34;5033870;28;20215;-81
2022/09/09 07:10:28;;;;;;;2.43;1.00;;;;;;;17.93;79.98;100179.56;5034664;28;20219;-81
2022/09/09 07:12:55;;;;;;;3.10;1.10;;;;;;;18.01;79.65;100174.25;5031320;28;20231;-81
2022/09/09 07:15:22;;;;;;;4.17;1.10;;;;;;;18.11;79.43;100179.53;5036035;28;20233;-80
2022/09/09 07:17:50;;;;;;;3.80;0.93;;;;;;;18.20;79.10;100185.84;5033402;28;20244;-81
2022/09/09 07:20:17;;;;;;;3.50;1.33;;;;;;;18.28;78.46;100189.44;5031935;28;20231;-81
2022/09/09 07:22:43;;;;;;;1.67;0.70;;;;;;;18.33;77.22;100184.41;5031525;28;20215;-81
2022/09/09 07:25:10;;;;;;;3.20;1.03;;;;;;;18.35;76.37;100185.13;5032843;28;20222;-81
2022/09/09 07:27:36;;;;;;;5.23;1.23;;;;;;;18.44;76.65;100180.63;5033994;28;20214;-81
2022/09/09 07:30:04;;;;;;;3.53;1.50;;;;;;;18.53;75.80;100182.34;5038100;28;20223;-80
2022/09/09 07:32:30;;;;;;;2.17;1.00;;;;;;;18.62;75.36;100180.59;5038111;28;20221;-81
2022/09/09 07:34:58;;;;;;;2.00;0.93;;;;;;;18.70;74.35;100172.53;5040705;28;20208;-81
2022/09/09 07:37:25;;;;;;;3.33;1.10;;;;;;;18.79;74.52;100176.13;5037159;28;20204;-81
2022/09/09 07:39:51;;;;;;;3.67;0.90;;;;;;;18.91;74.57;100185.63;5031975;28;20225;-81
2022/09/09 07:42:19;;;;;;;3.50;1.20;;;;;;;19.01;73.79;100180.94;5034054;28;20205;-82
2022/09/09 07:44:45;;;;;;;3.03;1.00;;;;;;;19.07;72.78;100183.00;5034019;28;20258;-82
2022/09/09 07:47:12;;;;;;;3.10;0.80;;;;;;;19.16;73.13;100187.44;5036619;28;20640;-82
2022/09/09 07:49:38;;;;;;;2.30;0.87;;;;;;;19.29;72.65;100185.09;5029655;28;20237;-81
2022/09/09 07:52:06;;;;;;;3.57;1.17;;;;;;;19.36;71.02;100182.56;5038332;28;20655;-81
2022/09/09 07:54:32;;;;;;;2.70;0.87;;;;;;;19.40;70.70;100186.63;5031805;28;20202;-81
2022/09/09 07:56:59;;;;;;;4.47;1.03;;;;;;;19.47;70.44;100192.22;5032757;28;20212;-81
2022/09/09 07:59:25;;;;;;;4.07;1.00;;;;;;;19.51;69.32;100188.22;5032924;28;20636;-82
2022/09/09 08:01:54;;;;;;;2.17;0.90;;;;;;;19.58;69.57;100194.63;5031897;28;20197;-82
2022/09/09 08:04:21;;;;;;;2.83;1.00;;;;;;;19.64;69.57;100196.69;5036423;28;20212;-81
2022/09/09 08:06:50;;;;;;;2.40;0.90;;;;;;;19.67;68.87;100208.00;5038092;28;20583;-81
2022/09/09 08:09:18;;;;;;;3.57;1.00;;;;;;;19.68;67.82;100196.19;5036206;28;20740;-82
2022/09/09 08:11:45;;;;;;;3.00;1.20;;;;;;;19.68;68.00;100203.44;5028287;28;20475;-81
2022/09/09 08:14:12;;;;;;;3.50;1.47;;;;;;;19.69;68.07;100199.75;5030532;28;20202;-81
2022/09/09 08:16:42;;;;;;;1.80;0.90;;;;;;;19.73;67.64;100198.38;5030991;28;22035;-80
2022/09/09 08:19:08;;;;;;;2.27;0.77;;;;;;;19.77;67.19;100199.72;5029977;28;20199;-80
2022/09/09 08:21:38;;;;;;;2.93;0.93;;;;;;;19.79;66.92;100199.56;5031239;28;20673;-80
2022/09/09 08:24:05;;;;;;;3.20;0.70;;;;;;;19.81;66.61;100201.09;5029266;28;20689;-80
2022/09/09 08:26:35;;;;;;;3.20;0.80;;;;;;;19.83;66.95;100199.06;5033792;28;20227;-80
2022/09/09 08:29:03;;;;;;;1.90;0.90;;;;;;;19.82;66.32;100202.78;5031909;28;20623;-79
2022/09/09 08:31:33;;;;;;;4.50;1.00;;;;;;;19.81;66.38;100195.69;5035471;28;20213;-79
2022/09/09 08:34:01;;;;;;;2.13;0.80;;;;;;;19.84;66.68;100211.56;5037845;28;20355;-80
2022/09/09 08:36:29;;;;;;;2.90;0.90;;;;;;;19.89;67.32;100206.50;5024990;28;20205;-79
2022/09/09 08:38:58;;;;;;;5.83;1.13;;;;;;;19.95;67.10;100203.13;5031970;28;20201;-79
2022/09/09 08:41:54;;;;;;;3.33;0.93;;;;;;;19.98;66.77;100197.38;5031635;28;20593;-79
2022/09/09 08:44:33;;;;;;;1.20;0.90;;;;;;;20.02;66.72;100204.16;4998606;28;20200;-79
2022/09/09 08:47:09;;;;;;;2.40;0.90;;;;;;;20.06;66.71;100202.78;5033642;28;20198;-79
2022/09/09 08:49:53;;;;;;;2.67;0.93;;;;;;;20.20;67.09;100206.69;5032812;28;20248;-78
2022/09/09 08:52:24;;;;;;;2.23;0.90;;;;;;;20.38;67.31;100215.50;5037754;28;20228;-79
2022/09/09 08:54:51;;;;;;;3.17;1.00;;;;;;;20.60;67.19;100211.22;5033854;28;20211;-79
2022/09/09 08:57:26;;;;;;;2.90;0.70;;;;;;;20.71;64.41;100218.97;5034452;28;20200;-79
2022/09/09 08:59:57;;;;;;;3.43;0.63;;;;;;;20.80;64.30;100209.81;5033822;28;20221;-79
2022/09/09 09:02:28;;;;;;;2.00;0.80;;;;;;;20.94;64.12;100215.53;5036337;28;20929;-79
2022/09/09 09:05:06;;;;;;;3.03;0.95;;;;;;;21.03;63.01;100211.78;5034971;28;20202;-79
2022/09/09 09:07:45;;;;;;;2.10;0.77;;;;;;;21.08;62.90;100212.09;5033329;28;20230;-80
2022/09/09 09:10:19;;;;;;;2.97;0.82;;;;;;;21.09;62.46;100213.78;5035314;28;20230;-79
2022/09/09 09:12:48;;;;;;;2.93;1.00;;;;;;;21.15;62.72;100218.47;5034137;28;20221;-80
2022/09/09 09:15:20;;;;;;;2.28;0.93;;;;;;;21.20;61.95;100224.25;5040955;28;20234;-79
2022/09/09 09:17:48;;;;;;;4.68;1.10;;;;;;;21.26;61.78;100218.16;5035682;28;20213;-79
2022/09/09 09:20:18;;;;;;;3.33;1.10;;;;;;;21.37;61.91;100216.91;5039157;28;20225;-80
2022/09/09 09:22:50;;;;;;;2.70;1.00;;;;;;;21.50;62.49;100219.88;5038871;28;20247;-80
2022/09/09 09:25:19;;;;;;;4.00;1.00;;;;;;;21.67;61.21;100226.91;5036707;28;20688;-80
2022/09/09 09:27:54;;;;;;;2.33;0.70;;;;;;;21.77;60.83;100213.94;5032687;28;20217;-80
2022/09/09 09:30:24;;;;;;;3.15;1.00;;;;;;;22.00;61.47;100215.84;5034488;28;20244;-80
2022/09/09 09:32:55;;;;;;;3.75;1.08;;;;;;;22.15;59.41;100211.31;5029457;28;20230;-79
2022/09/09 09:35:22;;;;;;;2.58;0.80;;;;;;;22.15;58.75;100212.16;5033420;28;20213;-79
2022/09/09 09:37:49;;;;;;;2.25;0.85;;;;;;;22.20;58.65;100210.78;5030673;28;20213;-80
2022/09/09 09:40:18;;;;;;;2.28;0.85;;;;;;;22.22;58.43;100209.56;5040185;28;20703;-80
2022/09/09 09:42:54;;;;;;;7.78;0.90;;;;;;;22.23;58.64;100210.41;5031758;28;20217;-79
2022/09/09 09:45:29;;;;;;;4.78;1.30;;;;;;;22.26;58.32;100210.03;5033114;28;20209;-80
2022/09/09 09:48:01;;;;;;;3.67;1.20;;;;;;;22.28;58.19;100210.69;5037856;28;20206;-80
2022/09/09 09:50:28;;;;;;;3.13;0.70;;;;;;;22.31;57.94;100203.03;5034161;28;20218;-80
2022/09/09 09:52:57;;;;;;;3.25;0.90;;;;;;;22.36;57.68;100197.06;5033522;28;20235;-80
2022/09/09 09:55:25;;;;;;;1.83;0.70;;;;;;;22.40;57.60;100199.22;5034654;28;20225;-79
2022/09/09 09:57:53;;;;;;;4.63;1.00;;;;;;;22.51;57.71;100206.06;5032020;28;20209;-78
2022/09/09 10:00:21;;;;;;;3.88;0.98;;;;;;;22.59;57.46;100186.13;5036708;28;20232;-80
2022/09/09 10:02:52;;;;;;;3.53;0.95;;;;;;;22.64;57.00;100195.41;5036251;28;20199;-80
2022/09/09 10:05:21;;;;;;;2.63;0.88;;;;;;;22.65;55.84;100191.66;5031357;28;20201;-80
2022/09/09 10:08:01;;;;;;;2.50;1.00;;;;;;;22.66;55.83;100196.06;5037806;28;20230;-79
2022/09/09 10:10:38;;;;;;;3.80;0.90;;;;;;;22.66;55.66;100197.94;5035552;28;20229;-80
2022/09/09 10:13:12;;;;;;;1.80;0.68;;;;;;;22.63;55.44;100191.00;5037050;28;20668;-79
2022/09/09 10:15:50;;;;;;;2.13;0.98;;;;;;;22.59;55.19;100188.84;5036222;28;20907;-80
2022/09/09 10:18:32;;;;;;;4.68;1.00;;;;;;;22.57;55.49;100180.91;5036929;28;20664;-81
2022/09/09 10:21:08;;;;;;;2.95;0.98;;;;;;;22.58;55.71;100184.44;5033467;28;20279;-81
2022/09/09 10:23:49;;;;;;;4.57;0.95;;;;;;;22.61;56.00;100182.22;5039988;28;20198;-81
2022/09/09 10:26:33;;;;;;;4.68;0.88;;;;;;;22.64;56.08;100181.84;5039820;28;20217;-81
2022/09/09 10:29:21;;;;;;;2.80;0.88;;;;;;;22.69;55.91;100182.13;5038423;28;20236;-81
2022/09/09 10:31:59;;;;;;;2.80;0.90;;;;;;;22.71;55.18;100179.22;5039111;28;20232;-81
2022/09/09 10:34:48;;;;;;;2.47;0.60;;;;;;;22.73;54.18;100185.31;5041167;28;20208;-80
2022/09/09 10:37:26;;;;;;;2.38;0.80;;;;;;;22.74;53.16;100181.59;5037456;28;20918;-81
2022/09/09 10:40:03;;;;;;;2.00;0.80;;;;;;;22.79;52.38;100187.31;5038373;28;20232;-82
2022/09/09 10:42:32;;;;;;;2.38;0.80;;;;;;;22.83;51.91;100181.31;5035328;28;20194;-81
2022/09/09 10:45:16;;;;;;;2.70;0.90;;;;;;;22.93;51.85;100174.78;5040842;28;20206;-81
2022/09/09 10:47:57;;;;;;;2.45;0.80;;;;;;;23.00;51.64;100172.97;5038753;28;20202;-81
2022/09/09 10:50:47;;;;;;;1.92;0.70;;;;;;;23.10;51.24;100170.81;5035233;28;20226;-80
2022/09/09 10:53:27;;;;;;;2.55;0.52;;;;;;;23.11;50.54;100176.03;5033506;28;20263;-80
2022/09/09 10:56:00;;;;;;;1.35;0.70;;;;;;;23.09;49.68;100175.41;5036509;28;20202;-80
2022/09/09 10:58:35;;;;;;;3.30;0.60;;;;;;;23.06;49.35;100172.22;5033010;28;20229;-81
2022/09/09 11:01:10;;;;;;;3.20;0.80;;;;;;;23.02;50.18;100176.34;5034917;28;20232;-81
2022/09/09 11:03:41;;;;;;;1.55;0.70;;;;;;;23.03;50.51;100178.03;5035139;28;20204;-79
2022/09/09 11:06:14;;;;;;;2.03;0.55;;;;;;;23.04;50.39;100180.56;5034248;28;20215;-81
2022/09/09 11:08:41;;;;;;;1.75;0.65;;;;;;;23.01;50.79;100174.66;5031148;28;20661;-80
2022/09/09 11:11:13;;;;;;;2.60;0.90;;;;;;;22.97;50.76;100178.78;5034954;28;20226;-81
2022/09/09 11:13:45;;;;;;;1.83;0.80;;;;;;;22.91;51.43;100185.81;5031136;28;20213;-81
2022/09/09 11:16:23;;;;;;;3.00;1.00;;;;;;;22.87;51.90;100191.81;5033979;28;20217;-81
2022/09/09 11:18:50;;;;;;;3.80;1.00;;;;;;;22.83;52.22;100194.06;5028871;28;20221;-81
2022/09/09 11:21:25;;;;;;;1.95;0.63;;;;;;;22.82;52.76;100186.94;5032675;28;20230;-80
2022/09/09 11:23:56;;;;;;;2.95;0.73;;;;;;;22.77;52.99;100192.91;5030715;28;20585;-81
2022/09/09 11:26:31;;;;;;;2.60;0.93;;;;;;;22.73;53.62;100201.63;5032418;28;20211;-80
2022/09/09 11:29:15;;;;;;;2.00;0.50;;;;;;;22.64;54.09;100203.56;5030542;28;20210;-80
2022/09/09 11:31:46;;;;;;;1.77;0.60;;;;;;;22.56;54.66;100202.81;5033263;28;20205;-81
2022/09/09 11:34:35;;;;;;;2.38;0.63;;;;;;;22.45;54.51;100204.94;5031204;28;20217;-80
2022/09/09 11:37:15;;;;;;;2.20;0.60;;;;;;;22.30;54.54;100211.38;5030366;28;20213;-81
2022/09/09 11:40:09;;;;;;;2.40;0.80;;;;;;;22.16;54.71;100215.72;5028121;28;20230;-81